This is the latest recevied weather packets stored in our database for station/object OK1ZDJ-13. If no packets are shown the sender has not sent any weather packets the latest 10 day(s).
| Time | Temp. | Humidity | Pressure | Rain* | Wind** | Luminosity | Snow |
|---|---|---|---|---|---|---|---|
| 1778053692 | 17.22° C | 59% | 1008.8 hPa | - | - | - | - |
| 1778051892 | 16.67° C | 64% | 1008.8 hPa | - | - | - | - |
| 1778051292 | 16.67° C | 65% | 1008.9 hPa | - | - | - | - |
| 1778050692 | 16.67° C | 66% | 1008.9 hPa | - | - | - | - |
| 1778050092 | 16.11° C | 67% | 1008.8 hPa | - | - | - | - |
| 1778049492 | 16.67° C | 66% | 1008.7 hPa | - | - | - | - |
| 1778048892 | 17.22° C | 65% | 1008.7 hPa | - | - | - | - |
| 1778048292 | 17.78° C | 61% | 1008.4 hPa | - | - | - | - |
| 1778047692 | 17.78° C | 62% | 1008.5 hPa | - | - | - | - |
| 1778047092 | 17.22° C | 67% | 1008.5 hPa | - | - | - | - |
| 1778046492 | 17.78° C | 65% | 1008.3 hPa | - | - | - | - |
| 1778045892 | 17.78° C | 66% | 1008.5 hPa | - | - | - | - |
| 1778044092 | 14.44° C | 85% | 1008.3 hPa | - | - | - | - |
| 1778043492 | 13.33° C | 92% | 1008.4 hPa | - | - | - | - |
| 1778042892 | 12.78° C | 92% | 1008.3 hPa | - | - | - | - |
| 1778042292 | 12.78° C | 92% | 1008.5 hPa | - | - | - | - |
| 1778041692 | 12.78° C | 92% | 1008.4 hPa | - | - | - | - |
| 1778041092 | 12.78° C | 92% | 1008.1 hPa | - | - | - | - |
| 1778039892 | 12.22° C | 91% | 1007.8 hPa | - | - | - | - |
| 1778039292 | 12.22° C | 91% | 1007.7 hPa | - | - | - | - |
| 1778038697 | 12.22° C | 90% | 1007.8 hPa | - | - | - | - |
| 1778038091 | 12.22° C | 89% | 1007.9 hPa | - | - | - | - |
| 1778037490 | 12.22° C | 88% | 1007.8 hPa | - | - | - | - |
| 1778036891 | 12.22° C | 86% | 1007.8 hPa | - | - | - | - |
| 1778036290 | 12.78° C | 86% | 1007.8 hPa | - | - | - | - |
* Rain since midnight (hover to see other rain measurements)
** Current wind speed in m/s (hover to see current wind gust speed)